createdAt,value
2024-02-14T00:00:14.963Z,82.98
2024-02-14T00:02:50.484Z,81.15
2024-02-14T00:05:17.524Z,79.73
2024-02-14T00:07:44.366Z,87.99
2024-02-14T00:10:11.082Z,81.45
2024-02-14T00:12:38.303Z,81.52
2024-02-14T00:15:07.235Z,82.09
2024-02-14T00:17:35.284Z,79.42
2024-02-14T00:20:02.261Z,79.00
2024-02-14T00:22:28.895Z,75.80
2024-02-14T00:24:55.761Z,78.13
2024-02-14T00:27:22.417Z,80.95
2024-02-14T00:29:49.558Z,90.37
2024-02-14T00:32:16.497Z,91.21
2024-02-14T00:34:43.462Z,81.73
2024-02-14T00:37:10.176Z,84.81
2024-02-14T00:39:37.122Z,91.80
2024-02-14T00:42:03.969Z,85.95
2024-02-14T00:44:30.715Z,87.07
2024-02-14T00:47:00.774Z,80.45
2024-02-14T00:49:27.729Z,82.52
2024-02-14T00:51:54.459Z,82.25
2024-02-14T00:54:21.390Z,80.38
2024-02-14T00:56:48.029Z,79.63
2024-02-14T00:59:14.743Z,78.32
2024-02-14T01:01:41.404Z,76.58
2024-02-14T01:04:08.447Z,76.78
2024-02-14T01:06:35.307Z,82.30
2024-02-14T01:09:02.438Z,80.02
2024-02-14T01:11:29.798Z,80.58
2024-02-14T01:13:56.508Z,83.19
2024-02-14T01:16:23.400Z,85.80
2024-02-14T01:18:51.109Z,80.84
2024-02-14T01:21:17.870Z,78.74
2024-02-14T01:23:44.574Z,78.97
2024-02-14T01:26:11.262Z,80.17
2024-02-14T01:28:39.117Z,81.52
2024-02-14T01:31:05.768Z,82.18
2024-02-14T01:33:32.808Z,88.43
2024-02-14T01:36:00.227Z,89.43
2024-02-14T01:38:26.818Z,87.61
2024-02-14T01:40:53.672Z,86.89
2024-02-14T01:43:21.928Z,85.31
2024-02-14T01:45:48.880Z,89.40
2024-02-14T01:48:19.853Z,87.73
2024-02-14T01:50:47.043Z,93.94
2024-02-14T01:53:14.147Z,88.21
2024-02-14T01:55:41.070Z,90.55
2024-02-14T01:58:08.111Z,91.29
2024-02-14T02:00:35.581Z,91.13
2024-02-14T02:03:06.610Z,92.67
2024-02-14T02:05:35.291Z,89.81
2024-02-14T02:08:02.587Z,89.45
2024-02-14T02:10:30.457Z,88.98
2024-02-14T02:13:01.376Z,88.71
2024-02-14T02:15:29.827Z,90.51
2024-02-14T02:17:57.260Z,90.07
2024-02-14T02:20:23.981Z,88.35
2024-02-14T02:22:50.735Z,90.84
2024-02-14T02:25:17.373Z,88.87
2024-02-14T02:27:44.379Z,87.37
2024-02-14T02:30:11.649Z,87.69
2024-02-14T02:32:39.043Z,89.04
2024-02-14T02:35:06.054Z,89.22
2024-02-14T02:37:32.929Z,89.70
2024-02-14T02:39:59.589Z,93.25
2024-02-14T02:42:26.242Z,94.76
2024-02-14T02:44:53.110Z,90.10
2024-02-14T02:47:19.843Z,91.89
2024-02-14T02:49:46.897Z,90.02
2024-02-14T02:52:13.655Z,89.99
2024-02-14T02:54:44.999Z,91.34
2024-02-14T02:57:12.513Z,90.33
2024-02-14T02:59:40.524Z,88.26
2024-02-14T03:02:09.685Z,89.52
2024-02-14T03:04:46.228Z,89.30
2024-02-14T03:07:19.897Z,89.03
2024-02-14T03:09:46.575Z,90.16
2024-02-14T03:12:17.261Z,88.66
2024-02-14T03:14:45.350Z,91.00
2024-02-14T03:17:12.508Z,92.91
2024-02-14T03:19:40.421Z,89.12
2024-02-14T03:22:10.334Z,88.77
2024-02-14T03:24:38.389Z,88.67
2024-02-14T03:27:08.406Z,84.83
2024-02-14T03:29:36.847Z,85.27
2024-02-14T03:32:05.792Z,83.78
2024-02-14T03:34:34.973Z,86.39
2024-02-14T03:37:03.339Z,92.82
2024-02-14T03:39:30.488Z,91.30
2024-02-14T03:41:57.326Z,92.73
2024-02-14T03:44:24.470Z,96.53
2024-02-14T03:46:51.322Z,98.37
2024-02-14T03:49:18.205Z,97.83
2024-02-14T03:51:45.031Z,90.76
2024-02-14T03:54:12.971Z,90.17
2024-02-14T03:56:39.979Z,90.94
2024-02-14T03:59:07.230Z,92.16
2024-02-14T04:01:34.100Z,92.31
2024-02-14T04:04:01.063Z,90.81
2024-02-14T04:06:28.336Z,95.45
2024-02-14T04:08:55.386Z,97.30
2024-02-14T04:11:22.038Z,93.13
2024-02-14T04:13:48.735Z,92.85
2024-02-14T04:16:15.330Z,93.06
2024-02-14T04:18:43.685Z,89.87
2024-02-14T04:21:10.713Z,93.32
2024-02-14T04:23:37.563Z,92.97
2024-02-14T04:26:04.520Z,92.52
2024-02-14T04:28:31.148Z,93.45
2024-02-14T04:30:58.234Z,94.72
2024-02-14T04:33:25.442Z,97.22
2024-02-14T04:35:52.289Z,94.59
2024-02-14T04:38:20.959Z,88.88
2024-02-14T04:40:47.589Z,86.80
2024-02-14T04:43:14.292Z,85.26
2024-02-14T04:45:41.039Z,88.81
2024-02-14T04:48:09.187Z,91.02
2024-02-14T04:50:36.068Z,91.77
2024-02-14T04:53:02.736Z,91.88
2024-02-14T04:55:30.409Z,90.70
2024-02-14T04:57:57.138Z,91.61
2024-02-14T05:00:23.951Z,90.48
2024-02-14T05:02:50.870Z,89.19
2024-02-14T05:05:17.782Z,89.34
2024-02-14T05:07:44.684Z,85.95
2024-02-14T05:10:11.382Z,86.90
2024-02-14T05:12:38.396Z,83.59
2024-02-14T05:15:05.404Z,85.35
2024-02-14T05:17:32.449Z,91.00
2024-02-14T05:19:59.412Z,89.56
2024-02-14T05:22:26.209Z,94.72
2024-02-14T05:24:52.870Z,92.76
2024-02-14T05:27:19.542Z,89.25
2024-02-14T05:29:46.385Z,87.36
2024-02-14T05:32:13.019Z,88.01
2024-02-14T05:34:39.664Z,89.89
2024-02-14T05:37:07.083Z,89.05
2024-02-14T05:39:33.790Z,90.24
2024-02-14T05:42:00.640Z,85.40
2024-02-14T05:44:28.661Z,89.38
2024-02-14T05:46:56.135Z,89.17
2024-02-14T05:49:23.360Z,91.21
2024-02-14T05:51:51.199Z,91.40
2024-02-14T05:54:17.952Z,92.52
2024-02-14T05:56:44.562Z,88.35
2024-02-14T05:59:11.330Z,87.49
2024-02-14T06:01:38.008Z,86.00
2024-02-14T06:04:04.846Z,92.96
2024-02-14T06:06:33.501Z,90.70
2024-02-14T06:09:00.283Z,87.06
2024-02-14T06:11:27.101Z,88.72
2024-02-14T06:13:54.373Z,87.03
2024-02-14T06:16:20.986Z,84.07
2024-02-14T06:18:47.885Z,82.22
2024-02-14T06:21:14.649Z,86.88
2024-02-14T06:23:41.510Z,93.25
2024-02-14T06:26:08.170Z,91.89
2024-02-14T06:28:34.840Z,95.09
2024-02-14T06:31:02.022Z,93.55
2024-02-14T06:33:29.630Z,91.88
2024-02-14T06:35:56.787Z,92.33
2024-02-14T06:38:23.535Z,87.81
2024-02-14T06:40:50.602Z,91.18
2024-02-14T06:43:17.292Z,94.63
2024-02-14T06:45:44.819Z,95.65
2024-02-14T06:48:11.818Z,93.28
2024-02-14T06:50:38.639Z,90.34
2024-02-14T06:53:05.882Z,91.93
2024-02-14T06:55:33.402Z,92.85
2024-02-14T06:58:00.710Z,93.30
2024-02-14T07:00:27.572Z,92.65
2024-02-14T07:02:55.132Z,93.00
2024-02-14T07:05:21.764Z,92.16
2024-02-14T07:07:48.798Z,90.43
2024-02-14T07:10:15.630Z,86.80
2024-02-14T07:12:42.761Z,88.66
2024-02-14T07:15:09.915Z,79.98
2024-02-14T07:17:37.038Z,84.99
2024-02-14T07:20:04.482Z,85.07
2024-02-14T07:22:32.029Z,81.60
2024-02-14T07:24:58.912Z,79.97
2024-02-14T07:27:25.665Z,77.39
2024-02-14T07:29:52.682Z,80.79
2024-02-14T07:32:19.766Z,82.77
2024-02-14T07:34:47.419Z,78.29
2024-02-14T07:37:16.132Z,79.79
2024-02-14T07:39:42.871Z,77.11
2024-02-14T07:42:09.582Z,77.58
2024-02-14T07:44:36.324Z,74.65
2024-02-14T07:47:04.825Z,75.84
2024-02-14T07:49:33.408Z,79.67
2024-02-14T07:52:00.758Z,82.96
2024-02-14T07:54:28.706Z,79.84
2024-02-14T07:56:56.162Z,79.88
2024-02-14T07:59:22.824Z,74.17
2024-02-14T08:01:49.518Z,78.00
2024-02-14T08:04:17.254Z,71.70
2024-02-14T08:06:46.058Z,74.09
2024-02-14T08:09:12.829Z,80.64
2024-02-14T08:11:39.674Z,75.90
2024-02-14T08:14:06.574Z,75.40
2024-02-14T08:16:33.569Z,76.48
2024-02-14T08:19:00.775Z,74.58
2024-02-14T08:21:31.696Z,78.29
2024-02-14T08:24:00.816Z,78.67
2024-02-14T08:26:28.459Z,75.95
2024-02-14T08:28:55.189Z,72.74
2024-02-14T08:31:21.961Z,68.97
2024-02-14T08:33:48.894Z,67.44
2024-02-14T08:36:18.629Z,72.07
2024-02-14T08:38:45.616Z,71.88
2024-02-14T08:41:13.399Z,69.89
2024-02-14T08:43:40.226Z,71.68
2024-02-14T08:46:13.046Z,72.42
2024-02-14T08:48:47.572Z,67.67
2024-02-14T08:51:15.721Z,69.05
2024-02-14T08:53:46.581Z,64.08
2024-02-14T08:56:14.292Z,62.72
2024-02-14T08:58:41.312Z,64.84
2024-02-14T09:01:14.134Z,62.40
2024-02-14T09:03:49.990Z,63.36
2024-02-14T09:06:19.275Z,67.46
2024-02-14T09:08:46.436Z,61.27
2024-02-14T09:11:13.680Z,59.43
2024-02-14T09:13:43.584Z,49.75
2024-02-14T09:16:11.482Z,51.96
2024-02-14T09:18:38.702Z,48.75
2024-02-14T09:21:07.094Z,48.36
2024-02-14T09:23:34.326Z,47.29
2024-02-14T09:26:01.363Z,48.27
2024-02-14T09:28:28.072Z,49.43
2024-02-14T09:30:56.026Z,47.02
2024-02-14T09:33:22.934Z,45.51
2024-02-14T09:35:50.025Z,46.26
2024-02-14T09:38:16.767Z,45.37
2024-02-14T09:40:44.007Z,45.16
2024-02-14T09:43:34.134Z,44.18
2024-02-14T09:46:01.039Z,41.92
2024-02-14T09:48:28.483Z,41.11
2024-02-14T09:50:56.183Z,41.36
2024-02-14T09:53:24.065Z,40.23
2024-02-14T09:55:55.624Z,41.21
2024-02-14T09:58:23.280Z,38.98
2024-02-14T10:00:50.070Z,39.61
2024-02-14T10:03:17.421Z,39.31
2024-02-14T10:05:44.162Z,39.04
2024-02-14T10:08:12.007Z,39.02
2024-02-14T10:10:39.061Z,40.37
2024-02-14T10:13:06.667Z,40.24
2024-02-14T10:15:33.632Z,39.88
2024-02-14T10:18:01.165Z,39.45
2024-02-14T10:20:28.008Z,42.13
2024-02-14T10:23:01.809Z,39.75
2024-02-14T10:25:28.447Z,39.44
2024-02-14T10:27:55.604Z,41.24
2024-02-14T10:30:23.004Z,41.47
2024-02-14T10:32:50.487Z,40.70
2024-02-14T10:35:18.424Z,40.58
2024-02-14T10:37:45.374Z,41.78
2024-02-14T10:40:12.193Z,39.40
2024-02-14T10:42:38.855Z,38.63
2024-02-14T10:45:06.911Z,38.82
2024-02-14T10:47:37.571Z,36.40
2024-02-14T10:50:08.468Z,37.43
2024-02-14T10:52:37.460Z,37.45
2024-02-14T10:55:05.325Z,35.73
2024-02-14T10:57:35.181Z,36.37
2024-02-14T11:00:04.164Z,35.40
2024-02-14T11:02:31.865Z,34.30
2024-02-14T11:04:58.828Z,34.79
2024-02-14T11:07:28.909Z,34.19
2024-02-14T11:10:21.742Z,35.20
2024-02-14T11:12:49.937Z,35.38
2024-02-14T11:15:24.379Z,35.82
2024-02-14T11:17:53.471Z,36.94
2024-02-14T11:20:21.681Z,35.75
2024-02-14T11:22:56.279Z,34.55
2024-02-14T11:25:30.819Z,35.40
2024-02-14T11:27:58.199Z,33.61
2024-02-14T11:30:30.084Z,35.28
2024-02-14T11:32:57.070Z,34.74
2024-02-14T11:35:24.292Z,36.12
2024-02-14T11:37:54.797Z,37.49
2024-02-14T11:40:22.173Z,36.34
2024-02-14T11:42:49.025Z,35.08
2024-02-14T11:45:16.045Z,35.77
2024-02-14T11:47:43.126Z,36.32
2024-02-14T11:50:11.211Z,37.06
2024-02-14T11:52:38.318Z,37.64
2024-02-14T11:55:05.165Z,36.87
2024-02-14T11:57:32.020Z,37.64
2024-02-14T11:59:59.180Z,37.13
2024-02-14T12:02:25.984Z,37.68
2024-02-14T12:04:55.393Z,38.55
2024-02-14T12:07:23.511Z,37.60
2024-02-14T12:09:50.421Z,38.18
2024-02-14T12:12:17.568Z,36.33
2024-02-14T12:14:45.092Z,37.20
2024-02-14T12:17:11.920Z,37.70
2024-02-14T12:19:39.652Z,36.51
2024-02-14T12:22:12.918Z,36.14
2024-02-14T12:24:39.645Z,36.72
2024-02-14T12:27:06.990Z,38.52
2024-02-14T12:29:36.162Z,38.48
2024-02-14T12:32:09.276Z,39.09
2024-02-14T12:34:36.954Z,39.03
2024-02-14T12:37:06.624Z,38.94
2024-02-14T12:39:33.346Z,39.84
2024-02-14T12:42:03.569Z,39.33
2024-02-14T12:44:30.387Z,40.43
2024-02-14T12:46:58.060Z,38.78
2024-02-14T12:49:27.373Z,39.75
2024-02-14T12:51:54.186Z,39.36
2024-02-14T12:54:20.831Z,40.89
2024-02-14T12:56:47.554Z,41.86
2024-02-14T12:59:19.335Z,41.44
2024-02-14T13:01:46.347Z,41.03
2024-02-14T13:04:13.326Z,40.29
2024-02-14T13:06:40.203Z,40.28
2024-02-14T13:09:07.320Z,39.40
2024-02-14T13:11:34.246Z,40.16
2024-02-14T13:14:01.028Z,40.27
2024-02-14T13:16:27.850Z,41.36
2024-02-14T13:18:54.924Z,40.30
2024-02-14T13:21:21.653Z,41.51
2024-02-14T13:23:49.119Z,42.03
2024-02-14T13:26:15.961Z,42.09
2024-02-14T13:28:42.592Z,45.19
2024-02-14T13:31:11.426Z,45.00
2024-02-14T13:33:38.416Z,45.87
2024-02-14T13:36:06.209Z,43.72
2024-02-14T13:38:32.899Z,44.09
2024-02-14T13:41:00.688Z,44.27
2024-02-14T13:43:27.401Z,43.69
2024-02-14T13:45:54.091Z,45.17
2024-02-14T13:48:20.943Z,45.01
2024-02-14T13:50:47.738Z,44.11
2024-02-14T13:53:14.412Z,45.56
2024-02-14T13:55:41.318Z,43.93
2024-02-14T13:58:10.923Z,44.70
2024-02-14T14:00:37.812Z,43.95
2024-02-14T14:03:04.682Z,45.65
2024-02-14T14:05:31.513Z,42.28
2024-02-14T14:08:00.083Z,43.06
2024-02-14T14:10:28.105Z,43.08
2024-02-14T14:12:55.331Z,43.02
2024-02-14T14:15:23.874Z,41.86
2024-02-14T14:17:51.389Z,42.23
2024-02-14T14:20:19.918Z,40.56
2024-02-14T14:22:46.797Z,42.32
2024-02-14T14:25:13.582Z,40.89
2024-02-14T14:27:40.283Z,39.30
2024-02-14T14:30:08.381Z,41.14
2024-02-14T14:32:35.282Z,42.34
2024-02-14T14:35:02.190Z,39.56
2024-02-14T14:37:28.929Z,43.11
2024-02-14T14:39:57.473Z,43.20
2024-02-14T14:42:24.389Z,42.16
2024-02-14T14:44:51.291Z,40.67
2024-02-14T14:47:18.445Z,41.94
2024-02-14T14:49:45.204Z,40.90
2024-02-14T14:52:11.974Z,40.78
2024-02-14T14:54:38.940Z,40.87
2024-02-14T14:57:10.916Z,39.97
2024-02-14T14:59:37.911Z,42.74
2024-02-14T15:02:06.701Z,43.47
2024-02-14T15:04:35.901Z,43.87
2024-02-14T15:07:03.573Z,43.05
2024-02-14T15:09:32.157Z,41.80
2024-02-14T15:12:00.380Z,42.74
2024-02-14T15:14:27.869Z,42.05
2024-02-14T15:16:54.605Z,42.42
2024-02-14T15:19:22.722Z,42.57
2024-02-14T15:21:50.584Z,42.60
2024-02-14T15:24:17.645Z,43.98
2024-02-14T15:27:02.546Z,42.20
2024-02-14T15:29:48.685Z,42.60
2024-02-14T15:32:34.465Z,43.92
2024-02-14T15:35:01.299Z,43.52
2024-02-14T15:37:27.963Z,44.11
2024-02-14T15:39:54.936Z,44.46
2024-02-14T15:42:21.632Z,44.47
2024-02-14T15:44:48.419Z,45.80
2024-02-14T15:47:16.354Z,45.88
2024-02-14T15:49:43.056Z,46.13
2024-02-14T15:52:09.740Z,46.79
2024-02-14T15:54:37.935Z,46.84
2024-02-14T15:57:04.641Z,48.33
2024-02-14T15:59:31.313Z,49.75
2024-02-14T16:01:57.995Z,49.74
2024-02-14T16:04:26.324Z,49.71
2024-02-14T16:06:53.098Z,50.25
2024-02-14T16:09:20.181Z,50.17
2024-02-14T16:11:47.254Z,49.75
2024-02-14T16:14:14.696Z,50.76
2024-02-14T16:16:41.400Z,50.68
2024-02-14T16:19:08.178Z,51.97
2024-02-14T16:21:35.090Z,51.05
2024-02-14T16:24:01.860Z,52.48
2024-02-14T16:26:31.015Z,52.00
2024-02-14T16:28:58.111Z,51.27
2024-02-14T16:31:24.801Z,51.20
2024-02-14T16:33:51.560Z,53.26
2024-02-14T16:36:18.372Z,54.37
2024-02-14T16:38:45.072Z,52.74
2024-02-14T16:41:12.142Z,54.56
2024-02-14T16:43:39.132Z,53.38
2024-02-14T16:46:06.005Z,52.71
2024-02-14T16:48:32.986Z,53.10
2024-02-14T16:50:59.827Z,53.46
2024-02-14T16:53:26.617Z,52.85
2024-02-14T16:55:53.275Z,55.91
2024-02-14T16:58:19.910Z,55.17
2024-02-14T17:00:46.689Z,55.92
2024-02-14T17:03:16.923Z,56.49
2024-02-14T17:05:45.876Z,55.59
2024-02-14T17:08:12.837Z,55.53
2024-02-14T17:10:39.876Z,55.82
2024-02-14T17:13:08.460Z,55.70
2024-02-14T17:15:36.077Z,56.00
2024-02-14T17:18:03.147Z,57.97
2024-02-14T17:20:30.014Z,60.05
2024-02-14T17:22:56.637Z,58.10
2024-02-14T17:25:23.275Z,60.80
2024-02-14T17:27:49.974Z,63.17
2024-02-14T17:30:17.384Z,61.73
2024-02-14T17:32:49.725Z,64.50
2024-02-14T17:35:17.465Z,62.92
2024-02-14T17:37:44.272Z,62.16
2024-02-14T17:40:11.293Z,62.22
2024-02-14T17:42:38.028Z,62.92
2024-02-14T17:45:08.489Z,64.07
2024-02-14T17:47:35.921Z,66.20
2024-02-14T17:50:04.296Z,65.30
2024-02-14T17:52:31.073Z,65.96
2024-02-14T17:54:57.886Z,66.40
2024-02-14T17:57:25.875Z,66.72
2024-02-14T17:59:53.147Z,67.41
2024-02-14T18:02:19.875Z,66.32
2024-02-14T18:04:46.968Z,66.53
2024-02-14T18:07:13.785Z,67.78
2024-02-14T18:09:40.608Z,73.74
2024-02-14T18:12:07.479Z,74.01
2024-02-14T18:14:34.342Z,70.00
2024-02-14T18:17:01.475Z,71.61
2024-02-14T18:19:28.397Z,72.30
2024-02-14T18:21:55.119Z,72.38
2024-02-14T18:24:21.954Z,73.15
2024-02-14T18:26:48.769Z,75.03
2024-02-14T18:29:15.631Z,74.63
2024-02-14T18:31:42.591Z,74.06
2024-02-14T18:34:09.418Z,73.18
2024-02-14T18:36:36.211Z,74.86
2024-02-14T18:39:03.181Z,71.46
2024-02-14T18:41:29.957Z,70.77
2024-02-14T18:44:00.010Z,71.91
2024-02-14T18:46:29.549Z,71.44
2024-02-14T18:48:56.399Z,72.79
2024-02-14T18:51:23.475Z,73.21
2024-02-14T18:53:52.030Z,72.76
2024-02-14T18:56:21.176Z,73.45
2024-02-14T18:58:48.381Z,72.94
2024-02-14T19:01:29.092Z,73.52
2024-02-14T19:10:42.764Z,71.24
2024-02-14T19:13:09.560Z,76.08
2024-02-14T19:15:37.315Z,77.25
2024-02-14T19:18:04.311Z,79.24
2024-02-14T19:20:31.867Z,74.70
2024-02-14T19:22:58.542Z,76.67
2024-02-14T19:25:25.652Z,75.68
2024-02-14T19:27:52.516Z,78.79
2024-02-14T19:30:19.540Z,74.43
2024-02-14T19:32:46.566Z,75.78
2024-02-14T19:35:13.333Z,75.99
2024-02-14T19:37:40.212Z,78.16
2024-02-14T19:40:09.027Z,75.33
2024-02-14T19:42:35.713Z,75.28
2024-02-14T19:45:02.490Z,74.37
2024-02-14T19:47:30.127Z,73.17
2024-02-14T19:49:57.113Z,77.54
2024-02-14T19:52:24.210Z,80.73
2024-02-14T19:54:51.056Z,78.91
2024-02-14T19:57:17.820Z,79.45
2024-02-14T19:59:44.826Z,78.54
2024-02-14T20:02:11.469Z,82.02
2024-02-14T20:04:38.573Z,80.08
2024-02-14T20:07:08.641Z,77.75
2024-02-14T20:09:35.388Z,76.70
2024-02-14T20:12:02.118Z,78.33
2024-02-14T20:14:28.972Z,78.99
2024-02-14T20:16:56.049Z,82.91
2024-02-14T20:19:22.845Z,80.53
2024-02-14T20:21:50.756Z,79.64
2024-02-14T20:24:17.516Z,81.67
2024-02-14T20:26:44.345Z,83.74
2024-02-14T20:29:11.119Z,82.43
2024-02-14T20:31:38.752Z,83.62
2024-02-14T20:34:05.961Z,84.91
2024-02-14T20:36:36.359Z,81.35
2024-02-14T20:39:04.154Z,82.27
2024-02-14T20:41:31.352Z,81.43
2024-02-14T20:43:58.125Z,81.10
2024-02-14T20:46:27.963Z,82.44
2024-02-14T20:48:54.953Z,82.55
2024-02-14T20:51:22.120Z,83.35
2024-02-14T20:53:49.304Z,86.30
2024-02-14T20:56:16.031Z,83.68
2024-02-14T20:58:56.364Z,81.61
2024-02-14T21:01:28.579Z,87.97
2024-02-14T21:03:57.234Z,85.03
2024-02-14T21:06:24.194Z,82.22
2024-02-14T21:08:53.533Z,85.89
2024-02-14T21:11:20.273Z,86.62
2024-02-14T21:13:47.013Z,87.46
2024-02-14T21:16:13.854Z,86.69
2024-02-14T21:18:40.626Z,88.18
2024-02-14T21:21:07.916Z,90.44
2024-02-14T21:23:35.103Z,84.83
2024-02-14T21:26:01.846Z,81.88
2024-02-14T21:28:28.858Z,80.75
2024-02-14T21:30:55.511Z,80.64
2024-02-14T21:33:26.038Z,84.33
2024-02-14T21:35:57.891Z,83.20
2024-02-14T21:38:24.745Z,82.97
2024-02-14T21:40:51.353Z,86.42
2024-02-14T21:43:18.024Z,85.20
2024-02-14T21:45:44.644Z,84.79
2024-02-14T21:48:11.559Z,87.62
2024-02-14T21:50:38.345Z,86.53
2024-02-14T21:53:05.041Z,85.47
2024-02-14T21:55:31.610Z,89.01
2024-02-14T21:57:58.251Z,88.52
2024-02-14T22:00:24.877Z,89.14
2024-02-14T22:02:53.013Z,89.17
2024-02-14T22:05:21.882Z,83.14
2024-02-14T22:07:48.870Z,83.65
2024-02-14T22:10:16.116Z,85.28
2024-02-14T22:12:43.243Z,84.44
2024-02-14T22:15:10.790Z,85.69
2024-02-14T22:17:38.963Z,86.62
2024-02-14T22:20:07.178Z,88.75
2024-02-14T22:22:35.500Z,85.31
2024-02-14T22:25:02.401Z,85.33
2024-02-14T22:27:29.957Z,86.34
2024-02-14T22:29:57.148Z,86.05
2024-02-14T22:32:24.008Z,86.55
2024-02-14T22:34:52.155Z,85.26
2024-02-14T22:37:19.334Z,88.75
2024-02-14T22:39:45.961Z,84.55
2024-02-14T22:42:12.989Z,89.84
2024-02-14T22:44:40.113Z,85.55
2024-02-14T22:47:09.152Z,87.79
2024-02-14T22:49:35.931Z,84.55
2024-02-14T22:52:02.992Z,86.94
2024-02-14T22:54:29.605Z,86.29
2024-02-14T22:56:56.310Z,87.26
2024-02-14T22:59:23.785Z,88.28
2024-02-14T23:01:50.445Z,88.50
2024-02-14T23:04:17.191Z,90.98
2024-02-14T23:06:44.170Z,85.52
2024-02-14T23:09:11.274Z,86.92
2024-02-14T23:11:40.879Z,86.71
2024-02-14T23:14:07.943Z,88.30
2024-02-14T23:16:35.109Z,86.88
2024-02-14T23:19:02.307Z,89.35
2024-02-14T23:21:29.514Z,87.66
2024-02-14T23:23:56.264Z,85.29
2024-02-14T23:26:22.867Z,85.73
2024-02-14T23:28:49.534Z,84.30
2024-02-14T23:31:16.609Z,84.08
2024-02-14T23:33:43.868Z,82.93
2024-02-14T23:36:11.746Z,82.73
2024-02-14T23:38:40.218Z,83.30
2024-02-14T23:41:06.931Z,84.54
2024-02-14T23:43:33.774Z,82.99
2024-02-14T23:46:00.374Z,83.39
2024-02-14T23:48:27.261Z,84.29
2024-02-14T23:50:54.052Z,82.93
2024-02-14T23:53:20.859Z,83.93
2024-02-14T23:55:47.600Z,85.47
2024-02-14T23:58:15.890Z,85.79
